Terminal Aerodrome Forecast
Issued by NWS Tulsa, OK

Home | Current Version | Previous Version | Text Only | Print | Product List | Glossary On
Versions: 1 2 3 4 5 6 7 8 9 10 11 12 13
000
FTUS44 KTSA 280500
TAFFSM
TAF
KFSM 280520Z 2806/2906 VRB03KT P6SM BKN080
     FM281400 08007KT P6SM BKN100
     FM282000 08007KT P6SM SCT100=

USA.gov is the U.S. government's official web portal to all federal, state and local government web resources and services.